createdAt,value
2023-03-21T16:24:16.961Z,24.8227
2023-03-21T16:25:18.602Z,24.8138
2023-03-21T16:26:20.247Z,24.7723
2023-03-21T16:27:21.878Z,24.7231
2023-03-21T16:28:23.538Z,24.6238
2023-03-21T16:29:25.206Z,24.5581
2023-03-21T16:30:26.811Z,24.4712
2023-03-21T16:31:28.568Z,24.3304
2023-03-21T16:32:30.109Z,24.2515
2023-03-21T16:33:31.761Z,24.2288
2023-03-21T16:34:33.458Z,24.2262
2023-03-21T16:35:35.087Z,24.1519
2023-03-21T16:36:36.745Z,24.0419
2023-03-21T16:37:38.394Z,24.1008
2023-03-21T16:38:40.062Z,24.1792
2023-03-21T16:39:41.754Z,24.2354
2023-03-21T16:40:43.868Z,24.2765
2023-03-21T16:41:44.959Z,24.3058
2023-03-21T16:42:46.614Z,24.3346
2023-03-21T16:43:48.298Z,24.3496
2023-03-21T16:44:49.938Z,24.3627
2023-03-21T16:45:51.624Z,24.3746
2023-03-21T16:46:53.280Z,24.3942
2023-03-21T16:47:54.908Z,24.4081
2023-03-21T16:48:56.544Z,24.4231
2023-03-21T16:49:58.197Z,24.4319
2023-03-21T16:50:59.857Z,24.4404
2023-03-21T16:52:01.539Z,24.4335
2023-03-21T16:53:03.186Z,24.4331
2023-03-21T16:54:04.827Z,24.4192
2023-03-21T16:55:06.476Z,24.4127
2023-03-21T16:56:08.150Z,24.4050
2023-03-21T16:57:09.817Z,24.3969
2023-03-21T16:58:11.448Z,24.3842
2023-03-21T16:59:13.125Z,24.4088
2023-03-21T17:00:14.782Z,24.4381
2023-03-21T17:01:16.441Z,24.4619
2023-03-21T17:02:18.047Z,24.4735
2023-03-21T17:03:19.804Z,24.4858
2023-03-21T17:04:21.345Z,24.5000
2023-03-21T17:05:23.050Z,24.5012
2023-03-21T17:06:24.679Z,24.5015
2023-03-21T17:07:26.300Z,24.5065
2023-03-21T17:08:27.964Z,24.5062
2023-03-21T17:09:29.615Z,24.5127
2023-03-21T17:10:31.294Z,24.5173
2023-03-21T17:11:32.898Z,24.5219
2023-03-21T17:12:34.546Z,24.5223
2023-03-21T17:13:36.213Z,24.5296
2023-03-21T17:14:37.873Z,24.5292
2023-03-21T17:15:39.541Z,24.5308
2023-03-21T17:16:41.198Z,24.5408
2023-03-21T17:17:42.802Z,24.5469
2023-03-21T17:18:44.460Z,24.5512
2023-03-21T17:19:47.105Z,24.5588
2023-03-21T17:20:47.742Z,24.5627
2023-03-21T17:21:49.402Z,24.5631
2023-03-21T17:22:51.051Z,24.5654
2023-03-21T17:23:52.719Z,24.5696
2023-03-21T17:24:54.359Z,24.5723
2023-03-21T17:25:56.065Z,24.5796
2023-03-21T17:26:57.640Z,24.5823
2023-03-21T17:27:59.322Z,24.5850
2023-03-21T17:29:00.979Z,24.5923
2023-03-21T17:30:02.655Z,24.5992
2023-03-21T17:31:04.291Z,24.5958
2023-03-21T17:32:05.913Z,24.6042
2023-03-21T17:33:07.560Z,24.6042
2023-03-21T17:34:09.242Z,24.6073
2023-03-21T17:35:10.866Z,24.6146
2023-03-21T17:36:12.556Z,24.6138
2023-03-21T17:37:14.176Z,24.6162
2023-03-21T17:38:15.815Z,24.6192
2023-03-21T17:39:17.481Z,24.6277
2023-03-21T17:40:19.244Z,24.6285
2023-03-21T17:41:20.791Z,24.6281
2023-03-21T17:42:22.429Z,24.6296
2023-03-21T17:43:24.076Z,24.6373
2023-03-21T17:44:25.762Z,24.6569
2023-03-21T17:45:27.416Z,24.6600
2023-03-21T17:46:29.208Z,24.6492
2023-03-21T17:47:30.710Z,24.6431
2023-03-21T17:48:32.402Z,24.6419
2023-03-21T17:49:34.014Z,24.6350
2023-03-21T17:50:35.674Z,24.6338
2023-03-21T17:51:37.339Z,24.6338
2023-03-21T17:52:38.987Z,24.6277
2023-03-21T17:53:40.621Z,24.6354
2023-03-21T17:54:43.352Z,24.6312
2023-03-21T17:55:43.932Z,24.6258
2023-03-21T17:56:45.583Z,24.6238
2023-03-21T17:57:47.471Z,24.6346
2023-03-21T17:58:48.901Z,24.6277
2023-03-21T17:59:50.575Z,24.6254
2023-03-21T18:00:52.231Z,24.6250
2023-03-21T18:01:53.959Z,24.6315
2023-03-21T18:02:55.458Z,24.6288
2023-03-21T18:03:57.122Z,24.6265
2023-03-21T18:04:58.800Z,24.6277
2023-03-21T18:06:00.455Z,24.6277
2023-03-21T18:07:02.102Z,24.6319
2023-03-21T18:08:10.827Z,24.6288
2023-03-21T18:09:05.376Z,24.6315
2023-03-21T18:10:07.033Z,24.6235
2023-03-21T18:11:08.717Z,24.6227
2023-03-21T18:12:10.388Z,24.6231
2023-03-21T18:13:12.015Z,24.6292
2023-03-21T18:14:18.008Z,24.6281
2023-03-21T18:15:17.132Z,24.6373
2023-03-21T18:16:17.029Z,24.6415
2023-03-21T18:17:18.648Z,24.6369
2023-03-21T18:18:20.266Z,24.6377
2023-03-21T18:19:21.933Z,24.6431
2023-03-21T18:20:23.773Z,24.6477
2023-03-21T18:21:26.509Z,24.6465
2023-03-21T18:22:26.895Z,24.6504
2023-03-21T18:23:28.561Z,24.6485
2023-03-21T18:24:30.202Z,24.6569
2023-03-21T18:25:31.848Z,24.6577
2023-03-21T18:26:33.536Z,24.6558
2023-03-21T18:27:35.964Z,24.6600
2023-03-21T18:28:36.793Z,24.6619
2023-03-21T18:30:22.906Z,24.6596
2023-03-21T18:31:00.422Z,24.6612
2023-03-21T18:31:45.272Z,24.6596
2023-03-21T18:32:43.426Z,24.6600
2023-03-21T18:33:45.152Z,24.6635
2023-03-21T18:34:47.469Z,24.6638
2023-03-21T18:35:48.372Z,24.6612
2023-03-21T18:36:50.047Z,24.6646
2023-03-21T18:37:51.722Z,24.6562
2023-03-21T18:38:53.352Z,24.6600
2023-03-21T18:39:55.140Z,24.6531
2023-03-21T18:40:56.659Z,24.6569
2023-03-21T18:41:58.445Z,24.6588
2023-03-21T18:43:51.650Z,24.6542
2023-03-21T18:44:09.132Z,24.6577
2023-03-21T18:45:03.301Z,24.6658
2023-03-21T18:46:04.914Z,24.6804
2023-03-21T18:47:06.851Z,24.6735
2023-03-21T18:48:08.272Z,24.6642
2023-03-21T18:49:52.078Z,24.6577
2023-03-21T18:50:14.412Z,24.6512
2023-03-21T18:51:13.187Z,24.6508
2023-03-21T18:52:14.796Z,24.6542
2023-03-21T18:53:16.476Z,24.6527
2023-03-21T18:54:18.138Z,24.6615
2023-03-21T18:55:19.795Z,24.6619
2023-03-21T18:57:19.625Z,24.6665
2023-03-21T18:57:39.166Z,24.6608
2023-03-21T18:58:24.729Z,24.6535
2023-03-21T18:59:26.386Z,24.6577
2023-03-21T19:00:28.123Z,24.6608
2023-03-21T19:01:29.720Z,24.6631
2023-03-21T19:02:31.320Z,24.6704
2023-03-21T19:03:37.102Z,24.6704
2023-03-21T19:04:34.722Z,24.6592
2023-03-21T19:05:36.283Z,24.6596
2023-03-21T19:06:37.936Z,24.6623
2023-03-21T19:07:39.584Z,24.6581
2023-03-21T19:08:41.967Z,24.6573
2023-03-21T19:10:05.400Z,24.6581
2023-03-21T19:10:44.575Z,24.6577
2023-03-21T19:11:46.248Z,24.6627
2023-03-21T19:12:47.881Z,24.6638
2023-03-21T19:13:49.557Z,24.6623
2023-03-21T19:14:51.170Z,24.6650
2023-03-21T19:15:54.073Z,24.6615
2023-03-21T19:17:47.125Z,24.6604
2023-03-21T19:18:57.863Z,24.6596
2023-03-21T19:19:59.938Z,24.6519
2023-03-21T19:21:01.105Z,24.6565
2023-03-21T19:22:02.790Z,24.6546
2023-03-21T19:23:05.403Z,24.6465
2023-03-21T19:24:26.396Z,24.6569
2023-03-21T19:25:07.705Z,24.6581
2023-03-21T19:26:09.362Z,24.6646
2023-03-21T19:27:11.007Z,24.6615
2023-03-21T19:28:12.662Z,24.6631
2023-03-21T19:29:14.948Z,24.6588
2023-03-21T19:30:16.113Z,24.6581
2023-03-21T19:31:17.609Z,24.6554
2023-03-21T19:32:19.276Z,24.6538
2023-03-21T19:33:20.933Z,24.6565
2023-03-21T19:34:22.603Z,24.6504
2023-03-21T19:35:24.272Z,24.6400
2023-03-21T19:36:26.347Z,24.6285
2023-03-21T19:37:27.577Z,24.6350
2023-03-21T19:38:29.184Z,24.6412
2023-03-21T19:39:30.901Z,24.6392
2023-03-21T19:40:32.511Z,24.6423
2023-03-21T19:41:34.214Z,24.6450
2023-03-21T19:42:35.842Z,24.6419
2023-03-21T19:43:37.517Z,24.6408
2023-03-21T19:44:39.165Z,24.6508
2023-03-21T19:45:41.545Z,24.6423
2023-03-21T19:46:42.479Z,24.6458
2023-03-21T19:47:44.125Z,24.6446
2023-03-21T19:48:45.815Z,24.6404
2023-03-21T19:50:37.399Z,24.6346
2023-03-21T19:51:20.136Z,24.6335
2023-03-21T19:51:50.757Z,24.6362
2023-03-21T19:52:52.556Z,24.6431
2023-03-21T19:53:54.066Z,24.6431
2023-03-21T19:54:55.739Z,24.6492
2023-03-21T19:56:01.830Z,24.6473
2023-03-21T19:56:59.700Z,24.6465
2023-03-21T19:58:00.651Z,24.6388
2023-03-21T19:59:02.297Z,24.6408
2023-03-21T20:00:04.012Z,24.6369
2023-03-21T20:01:05.631Z,24.6242
2023-03-21T20:02:33.321Z,24.6246
2023-03-21T20:03:09.053Z,24.6227
2023-03-21T20:04:10.638Z,24.6146
2023-03-21T20:05:12.278Z,24.6173
2023-03-21T20:06:13.881Z,24.6158
2023-03-21T20:07:15.561Z,24.6162
2023-03-21T20:08:17.782Z,24.6177
2023-03-21T20:10:20.559Z,24.6335
2023-03-21T20:11:22.158Z,24.6338
2023-03-21T20:12:23.825Z,24.6277
2023-03-21T20:13:25.467Z,24.6246
2023-03-21T20:14:27.115Z,24.6277
2023-03-21T20:15:30.603Z,24.6246
2023-03-21T20:16:34.725Z,24.6231
2023-03-21T20:17:32.109Z,24.6235
2023-03-21T20:18:33.770Z,24.6254
2023-03-21T20:19:35.428Z,24.6181
2023-03-21T20:20:37.307Z,24.6108
2023-03-21T20:21:47.643Z,24.6062
2023-03-21T20:23:42.039Z,24.6327
2023-03-21T20:24:43.747Z,24.6235
2023-03-21T20:25:45.390Z,24.6227
2023-03-21T20:26:47.117Z,24.6277
2023-03-21T20:28:06.076Z,24.6300
2023-03-21T20:29:00.167Z,24.6423
2023-03-21T20:30:09.489Z,24.6412
2023-03-21T20:30:53.849Z,24.6327
2023-03-21T20:31:55.356Z,24.6273
2023-03-21T20:32:57.060Z,24.6250
2023-03-21T20:33:58.680Z,24.6273
2023-03-21T20:35:13.778Z,24.6458
2023-03-21T20:37:05.487Z,24.6296
2023-03-21T20:38:05.317Z,24.6250
2023-03-21T20:39:06.974Z,24.6238
2023-03-21T20:40:08.621Z,24.6154
2023-03-21T20:41:10.269Z,24.6138
2023-03-21T20:42:11.902Z,24.6023
2023-03-21T20:43:54.331Z,24.6031
2023-03-21T20:45:16.916Z,24.6112
2023-03-21T20:46:18.629Z,24.6142
2023-03-21T20:47:20.205Z,24.6100
2023-03-21T20:48:21.955Z,24.6173
2023-03-21T20:49:23.667Z,24.6127
2023-03-21T20:50:26.011Z,24.6042
2023-03-21T20:53:30.135Z,24.5919
2023-03-21T20:54:31.799Z,24.5938
2023-03-21T20:55:33.463Z,24.5935
2023-03-21T20:56:35.136Z,24.5977
2023-03-21T20:57:38.780Z,24.5965
2023-03-21T20:58:59.309Z,24.6015
2023-03-21T20:59:40.048Z,24.6004
2023-03-21T21:00:41.695Z,24.5973
2023-03-21T21:01:43.540Z,24.5988
2023-03-21T21:02:45.063Z,24.6019
2023-03-21T21:03:46.701Z,24.5981
2023-03-21T21:05:17.311Z,24.6004
2023-03-21T21:05:50.075Z,24.5973
2023-03-21T21:06:51.672Z,24.5977
2023-03-21T21:07:53.312Z,24.5969
2023-03-21T21:08:54.958Z,24.6027
2023-03-21T21:09:57.152Z,24.6050
2023-03-21T21:11:49.698Z,24.5992
2023-03-21T21:12:06.873Z,24.5969
2023-03-21T21:13:01.593Z,24.5919
2023-03-21T21:14:05.087Z,24.5904
2023-03-21T21:15:05.025Z,24.5988
2023-03-21T21:16:06.600Z,24.5919
2023-03-21T21:17:24.568Z,24.5992
2023-03-21T21:18:09.902Z,24.6065
2023-03-21T21:19:11.520Z,24.6023
2023-03-21T21:20:13.176Z,24.5992
2023-03-21T21:21:14.826Z,24.6031
2023-03-21T21:22:16.489Z,24.5931
2023-03-21T21:23:18.263Z,24.5958
2023-03-21T21:24:19.779Z,24.5950
2023-03-21T21:25:21.440Z,24.6031
2023-03-21T21:26:23.139Z,24.5981
2023-03-21T21:27:24.790Z,24.5927
2023-03-21T21:28:26.413Z,24.6000
2023-03-21T21:29:28.081Z,24.6069
2023-03-21T21:30:29.738Z,24.6019
2023-03-21T21:31:31.419Z,24.6042
2023-03-21T21:32:33.096Z,24.6012
2023-03-21T21:33:34.738Z,24.6015
2023-03-21T21:34:36.369Z,24.6004
2023-03-21T21:35:39.087Z,24.5988
2023-03-21T21:36:39.698Z,24.6031
2023-03-21T21:37:41.361Z,24.6104
2023-03-21T21:38:42.985Z,24.6127
2023-03-21T21:39:44.645Z,24.6081
2023-03-21T21:40:46.305Z,24.6119
2023-03-21T21:41:47.968Z,24.6108
2023-03-21T21:42:49.651Z,24.6127
2023-03-21T21:43:51.279Z,24.6115
2023-03-21T21:44:53.456Z,24.6058
2023-03-21T21:45:54.561Z,24.6077
2023-03-21T21:46:56.240Z,24.6115
2023-03-21T21:47:59.611Z,24.6119
2023-03-21T21:48:59.550Z,24.6173
2023-03-21T21:50:02.450Z,24.6154
2023-03-21T21:51:02.864Z,24.6162
2023-03-21T21:52:04.474Z,24.6131
2023-03-21T21:53:06.181Z,24.6181
2023-03-21T21:54:07.826Z,24.6204
2023-03-21T21:55:09.481Z,24.6212
